Time;durP1;ratioP1;P1;durP2;ratioP2;P2;SDS_P1;SDS_P2;PMS_P1;PMS_P2;Temp;Humidity;BMP_temperature;BMP_pressure;BME280_temperature;BME280_humidity;BME280_pressure;Samples;Min_cycle;Max_cycle;Signal;HPM_P1;HPM_P2
2022/08/02 00:00:49;;;;;;;;;;;;;;;16.31;100.00;99999.44;5014228;28;19944;-83
2022/08/02 00:03:21;;;;;;;;;;;;;;;16.27;100.00;100001.47;5002723;28;19921;-82
2022/08/02 00:05:50;;;;;;;;;;;;;;;16.22;100.00;99995.66;5020180;28;19922;-83
2022/08/02 00:08:19;;;;;;;;;;;;;;;15.97;100.00;99988.69;5014385;28;20362;-83
2022/08/02 00:10:46;;;;;;;;;;;;;;;16.18;100.00;99972.22;5014307;28;19975;-83
2022/08/02 00:13:12;;;;;;;;;;;;;;;16.22;100.00;99966.63;5012020;28;19921;-83
2022/08/02 00:15:39;;;;;;;;;;;;;;;15.98;100.00;99963.13;5016932;28;20256;-83
2022/08/02 00:18:06;;;;;;;;;;;;;;;16.26;100.00;99965.44;5013352;28;20275;-83
2022/08/02 00:20:32;;;;;;;;;;;;;;;16.24;100.00;99966.50;5012978;28;19928;-83
2022/08/02 00:22:59;;;;;;;;;;;;;;;16.47;100.00;99970.94;5012474;28;19928;-83
2022/08/02 00:25:25;;;;;;;;;;;;;;;16.47;100.00;99959.53;5016537;28;20302;-83
2022/08/02 00:27:52;;;;;;;;;;;;;;;16.42;100.00;99959.84;5014024;28;19921;-83
2022/08/02 00:30:19;;;;;;;;;;;;;;;16.32;100.00;99954.44;5014221;28;19932;-83
2022/08/02 00:32:45;;;;;;;;;;;;;;;16.14;100.00;99955.75;5013864;28;19921;-83
2022/08/02 00:35:12;;;;;;;;;;;;;;;16.02;100.00;99940.81;5014496;28;19925;-83
2022/08/02 00:37:40;;;;;;;;;;;;;;;16.16;100.00;99932.72;5012535;28;19921;-83
2022/08/02 00:40:07;;;;;;;;;;;;;;;16.24;100.00;99926.88;5012243;28;19921;-84
2022/08/02 00:42:34;;;;;;;;;;;;;;;16.19;100.00;99931.66;5011562;28;19928;-83
2022/08/02 00:45:01;;;;;;;;;;;;;;;16.32;100.00;99922.72;5018717;28;20364;-83
2022/08/02 00:47:28;;;;;;;;;;;;;;;16.25;100.00;99918.00;5013483;28;19921;-83
2022/08/02 00:49:54;;;;;;;;;;;;;;;16.33;100.00;99913.81;5011472;28;19925;-83
2022/08/02 00:52:22;;;;;;;;;;;;;;;16.31;100.00;99904.34;5013112;28;20287;-83
2022/08/02 00:54:49;;;;;;;;;;;;;;;16.30;100.00;99911.41;5012074;28;19921;-83
2022/08/02 00:57:16;;;;;;;;;;;;;;;16.31;100.00;99889.31;5001509;28;19928;-84
2022/08/02 00:59:42;;;;;;;;;;;;;;;16.34;100.00;99885.59;5010843;28;20379;-84
2022/08/02 01:02:09;;;;;;;;;;;;;;;16.26;100.00;99898.56;5012738;28;19925;-83
2022/08/02 01:04:36;;;;;;;;;;;;;;;16.50;100.00;99898.50;5012088;28;20299;-83
2022/08/02 01:07:04;;;;;;;;;;;;;;;16.40;100.00;99892.25;5009336;28;20372;-84
2022/08/02 01:09:42;;;;;;;;;;;;;;;16.73;100.00;99886.16;5011154;28;19922;-84
2022/08/02 01:12:09;;;;;;;;;;;;;;;16.60;100.00;99874.88;5015850;28;19928;-84
2022/08/02 01:14:37;;;;;;;;;;;;;;;16.47;100.00;99881.09;5020502;28;20351;-84
2022/08/02 01:17:07;;;;;;;;;;;;;;;16.33;100.00;99879.47;5013639;28;19944;-83
2022/08/02 01:19:42;;;;;;;;;;;;;;;16.32;100.00;99869.03;5012150;28;19928;-84
2022/08/02 01:22:18;;;;;;;;;;;;;;;16.28;100.00;99873.69;5011311;28;19928;-84
2022/08/02 01:25:04;;;;;;;;;;;;;;;16.31;100.00;99865.56;5010328;28;19925;-84
2022/08/02 01:27:33;;;;;;;;;;;;;;;16.37;100.00;99864.25;4998672;28;20276;-84
2022/08/02 01:30:01;;;;;;;;;;;;;;;16.38;100.00;99852.72;5011856;28;19945;-84
2022/08/02 01:32:34;;;;;;;;;;;;;;;16.41;100.00;99841.91;5013408;28;20387;-84
2022/08/02 01:35:14;;;;;;;;;;;;;;;16.42;100.00;99824.28;5014422;28;20546;-83
2022/08/02 01:37:40;;;;;;;;;;;;;;;16.38;100.00;99826.31;5006338;28;19922;-84
2022/08/02 01:40:09;;;;;;;;;;;;;;;16.41;100.00;99814.66;5011608;28;19921;-84
2022/08/02 01:42:37;;;;;;;;;;;;;;;16.32;100.00;99803.84;5011737;28;19929;-83
2022/08/02 01:45:05;;;;;;;;;;;;;;;16.43;100.00;99808.31;5009684;28;19921;-83
2022/08/02 01:47:34;;;;;;;;;;;;;;;16.51;100.00;99797.16;4998825;28;19928;-83
2022/08/02 01:50:01;;;;;;;;;;;;;;;16.55;100.00;99800.38;5012973;28;19921;-83
2022/08/02 01:52:32;;;;;;;;;;;;;;;16.68;100.00;99799.31;5011798;28;19931;-83
2022/08/02 01:55:07;;;;;;;;;;;;;;;16.57;100.00;99799.28;5013661;28;19921;-83
2022/08/02 01:57:48;;;;;;;;;;;;;;;16.62;100.00;99796.31;5010543;28;19932;-83
2022/08/02 02:00:15;;;;;;;;;;;;;;;16.66;100.00;99792.44;5011279;28;19921;-83
2022/08/02 02:02:43;;;;;;;;;;;;;;;16.76;100.00;99784.66;5011716;28;20581;-83
2022/08/02 02:05:13;;;;;;;;;;;;;;;16.54;100.00;99789.00;5017728;28;19921;-83
2022/08/02 02:07:41;;;;;;;;;;;;;;;16.61;100.00;99770.81;5011789;28;20319;-84
2022/08/02 02:10:10;;;;;;;;;;;;;;;16.43;100.00;99762.53;5011255;28;19921;-84
2022/08/02 02:12:38;;;;;;;;;;;;;;;16.50;100.00;99764.59;5005454;28;19921;-83
2022/08/02 02:15:07;;;;;;;;;;;;;;;16.62;100.00;99775.16;5019644;28;19921;-84
2022/08/02 02:17:35;;;;;;;;;;;;;;;16.64;100.00;99758.25;5011240;28;19922;-84
2022/08/02 02:20:22;;;;;;;;;;;;;;;16.59;100.00;99757.75;5011011;28;19922;-84
2022/08/02 02:22:49;;;;;;;;;;;;;;;16.56;100.00;99763.28;5011140;28;19921;-84
2022/08/02 02:25:17;;;;;;;;;;;;;;;16.61;100.00;99747.91;5024891;28;19921;-84
2022/08/02 02:28:04;;;;;;;;;;;;;;;16.59;100.00;99744.56;5011707;28;20334;-84
2022/08/02 02:30:32;;;;;;;;;;;;;;;16.42;100.00;99737.09;5011170;28;20362;-83
2022/08/02 02:33:00;;;;;;;;;;;;;;;16.46;100.00;99741.16;5011283;28;19927;-83
2022/08/02 02:35:28;;;;;;;;;;;;;;;16.64;100.00;99718.59;5011191;28;19928;-84
2022/08/02 02:37:57;;;;;;;;;;;;;;;16.63;100.00;99716.09;5010920;28;19936;-83
2022/08/02 02:40:24;;;;;;;;;;;;;;;16.44;100.00;99721.97;5010960;28;19921;-84
2022/08/02 02:42:51;;;;;;;;;;;;;;;16.50;100.00;99722.31;5011097;28;19928;-84
2022/08/02 02:45:19;;;;;;;;;;;;;;;16.62;100.00;99709.09;5009704;28;19999;-84
2022/08/02 02:47:48;;;;;;;;;;;;;;;16.66;100.00;99703.47;5010576;28;20311;-84
2022/08/02 02:50:18;;;;;;;;;;;;;;;16.63;100.00;99701.06;5011338;28;19921;-83
2022/08/02 02:52:45;;;;;;;;;;;;;;;16.60;100.00;99709.22;4997030;28;20393;-83
2022/08/02 02:55:11;;;;;;;;;;;;;;;16.62;100.00;99702.00;5011930;28;19925;-83
2022/08/02 02:57:39;;;;;;;;;;;;;;;16.71;100.00;99684.56;5013914;28;20279;-84
2022/08/02 03:00:09;;;;;;;;;;;;;;;16.81;100.00;99692.63;5015427;28;19928;-84
2022/08/02 03:02:37;;;;;;;;;;;;;;;16.91;100.00;99674.22;5015762;28;19921;-84
2022/08/02 03:05:05;;;;;;;;;;;;;;;16.93;100.00;99656.44;5013176;28;19921;-85
2022/08/02 03:07:33;;;;;;;;;;;;;;;16.76;100.00;99661.25;5015173;28;19925;-85
2022/08/02 03:10:00;;;;;;;;;;;;;;;16.65;100.00;99648.09;5020927;28;19927;-85
2022/08/02 03:12:27;;;;;;;;;;;;;;;16.67;100.00;99665.47;5016165;28;19921;-85
2022/08/02 03:14:58;;;;;;;;;;;;;;;16.90;100.00;99668.13;5016940;28;20298;-84
2022/08/02 03:17:25;;;;;;;;;;;;;;;16.93;100.00;99667.00;5015803;28;20398;-85
2022/08/02 03:19:51;;;;;;;;;;;;;;;17.00;100.00;99662.94;5014306;28;20000;-85
2022/08/02 03:22:18;;;;;;;;;;;;;;;17.16;100.00;99667.81;5015535;28;20031;-84
2022/08/02 03:24:44;;;;;;;;;;;;;;;17.02;100.00;99653.06;5023346;28;19921;-84
2022/08/02 03:27:11;;;;;;;;;;;;;;;17.12;100.00;99642.56;5001503;28;20282;-84
2022/08/02 03:29:38;;;;;;;;;;;;;;;17.14;100.00;99638.84;5014574;28;19968;-84
2022/08/02 03:32:04;;;;;;;;;;;;;;;17.08;100.00;99631.41;5015457;28;19921;-84
2022/08/02 03:34:31;;;;;;;;;;;;;;;17.11;100.00;99625.84;5022527;28;19927;-84
2022/08/02 03:36:58;;;;;;;;;;;;;;;17.07;100.00;99635.84;5017581;28;20299;-84
2022/08/02 03:39:26;;;;;;;;;;;;;;;16.96;100.00;99629.75;5014154;28;19921;-84
2022/08/02 03:41:53;;;;;;;;;;;;;;;17.07;100.00;99632.38;5014435;28;20016;-84
2022/08/02 03:44:21;;;;;;;;;;;;;;;17.00;100.00;99628.56;5019424;28;19921;-84
2022/08/02 03:46:48;;;;;;;;;;;;;;;17.17;100.00;99627.16;5020453;28;20016;-84
2022/08/02 03:49:15;;;;;;;;;;;;;;;17.21;100.00;99634.72;5013377;28;20011;-84
2022/08/02 03:51:42;;;;;;;;;;;;;;;17.33;100.00;99632.00;5012938;28;19963;-84
2022/08/02 03:54:09;;;;;;;;;;;;;;;17.41;100.00;99626.94;5018074;28;19921;-84
2022/08/02 03:56:36;;;;;;;;;;;;;;;17.31;100.00;99618.06;5013794;28;19925;-84
2022/08/02 03:59:10;;;;;;;;;;;;;;;17.42;100.00;99610.94;5013264;28;19932;-84
2022/08/02 04:01:37;;;;;;;;;;;;;;;17.52;100.00;99626.03;5013473;28;19921;-84
2022/08/02 04:04:04;;;;;;;;;;;;;;;17.45;100.00;99615.09;5014768;28;19921;-84
2022/08/02 04:06:31;;;;;;;;;;;;;;;17.41;100.00;99619.00;5014041;28;19925;-84
2022/08/02 04:08:58;;;;;;;;;;;;;;;17.48;100.00;99614.84;5012519;28;19921;-84
2022/08/02 04:11:31;;;;;;;;;;;;;;;17.42;100.00;99615.34;4999721;28;20462;-84
2022/08/02 04:14:01;;;;;;;;;;;;;;;17.33;100.00;99622.25;5019783;28;20012;-84
2022/08/02 04:16:37;;;;;;;;;;;;;;;17.30;100.00;99614.59;5017932;28;19921;-84
2022/08/02 04:19:04;;;;;;;;;;;;;;;17.52;100.00;99621.56;5012989;28;19948;-84
2022/08/02 04:21:32;;;;;;;;;;;;;;;17.42;100.00;99618.88;5013652;28;19929;-84
2022/08/02 04:24:19;;;;;;;;;;;;;;;17.34;100.00;99621.31;5015915;28;19967;-84
2022/08/02 04:26:50;;;;;;;;;;;;;;;17.34;100.00;99613.38;5012452;28;19928;-83
2022/08/02 04:29:18;;;;;;;;;;;;;;;17.37;100.00;99606.97;5012857;28;19921;-84
2022/08/02 04:31:45;;;;;;;;;;;;;;;17.40;100.00;99604.06;5012899;28;19922;-84
2022/08/02 04:34:12;;;;;;;;;;;;;;;17.43;100.00;99585.28;5012981;28;19927;-84
2022/08/02 04:36:41;;;;;;;;;;;;;;;17.45;100.00;99580.72;5014286;28;19922;-84
2022/08/02 04:39:08;;;;;;;;;;;;;;;17.45;100.00;99581.53;5013031;28;19929;-84
2022/08/02 04:41:36;;;;;;;;;;;;;;;17.59;100.00;99571.59;5019975;28;19927;-84
2022/08/02 04:44:06;;;;;;;;;;;;;;;17.54;100.00;99568.50;5016240;28;19971;-84
2022/08/02 04:46:33;;;;;;;;;;;;;;;17.30;100.00;99572.28;5014541;28;20358;-84
2022/08/02 04:49:00;;;;;;;;;;;;;;;17.44;100.00;99576.38;5012283;28;19968;-84
2022/08/02 04:51:32;;;;;;;;;;;;;;;17.51;100.00;99576.69;5012615;28;20021;-84
2022/08/02 04:54:04;;;;;;;;;;;;;;;17.62;100.00;99584.56;5012769;28;19962;-84
2022/08/02 04:56:34;;;;;;;;;;;;;;;17.58;100.00;99585.78;5012541;28;19921;-85
2022/08/02 04:59:01;;;;;;;;;;;;;;;17.51;100.00;99582.84;5012166;28;19921;-84
2022/08/02 05:01:28;;;;;;;;;;;;;;;17.60;100.00;99586.50;5012072;28;19921;-84
2022/08/02 05:03:54;;;;;;;;;;;;;;;17.64;100.00;99583.47;5013665;28;19927;-84
2022/08/02 05:06:21;;;;;;;;;;;;;;;17.59;100.00;99598.06;5012915;28;20264;-84
2022/08/02 05:08:48;;;;;;;;;;;;;;;17.67;100.00;99600.03;5013700;28;19932;-84
2022/08/02 05:11:19;;;;;;;;;;;;;;;17.75;100.00;99597.59;5012002;28;19928;-83
2022/08/02 05:13:45;;;;;;;;;;;;;;;17.67;100.00;99590.31;5014624;28;19927;-84
2022/08/02 05:16:25;;;;;;;;;;;;;;;17.74;100.00;99591.47;5012506;28;20431;-83
2022/08/02 05:18:57;;;;;;;;;;;;;;;17.84;100.00;99588.84;5012521;28;20346;-84
2022/08/02 05:21:24;;;;;;;;;;;;;;;17.91;100.00;99591.84;5028810;28;19926;-84
2022/08/02 05:23:50;;;;;;;;;;;;;;;17.96;100.00;99584.34;5014607;28;19921;-84
2022/08/02 05:26:17;;;;;;;;;;;;;;;18.01;100.00;99585.63;5011183;28;19921;-84
2022/08/02 05:28:43;;;;;;;;;;;;;;;18.00;100.00;99589.22;5011850;28;20279;-84
2022/08/02 05:31:10;;;;;;;;;;;;;;;18.00;100.00;99583.09;5013389;28;20366;-84
2022/08/02 05:33:38;;;;;;;;;;;;;;;18.08;100.00;99585.06;5013257;28;19921;-84
2022/08/02 05:36:05;;;;;;;;;;;;;;;18.11;100.00;99590.94;5023822;28;19921;-84
2022/08/02 05:38:32;;;;;;;;;;;;;;;18.29;100.00;99595.59;5011877;28;19928;-83
2022/08/02 05:41:02;;;;;;;;;;;;;;;18.38;100.00;99592.16;5007694;28;19922;-84
2022/08/02 05:43:29;;;;;;;;;;;;;;;18.41;100.00;99589.22;5004972;28;19921;-83
2022/08/02 05:45:56;;;;;;;;;;;;;;;18.42;100.00;99593.56;5025341;28;19922;-84
2022/08/02 05:48:22;;;;;;;;;;;;;;;18.42;100.00;99577.66;5012221;28;19921;-84
2022/08/02 05:51:01;;;;;;;;;;;;;;;18.40;100.00;99579.59;5012191;28;19925;-84
2022/08/02 05:53:44;;;;;;;;;;;;;;;18.60;100.00;99573.34;5011394;28;19968;-85
2022/08/02 05:56:22;;;;;;;;;;;;;;;18.66;100.00;99568.47;5005072;28;19964;-84
2022/08/02 05:58:59;;;;;;;;;;;;;;;18.64;100.00;99575.72;5011609;28;19922;-84
2022/08/02 06:01:35;;;;;;;;;;;;;;;18.71;100.00;99577.69;5010960;28;19921;-84
2022/08/02 06:04:04;;;;;;;;;;;;;;;18.88;100.00;99570.91;5014966;28;19921;-84
2022/08/02 06:06:31;;;;;;;;;;;;;;;18.91;100.00;99559.16;5012442;28;19922;-85
2022/08/02 06:09:08;;;;;;;;;;;;;;;18.85;100.00;99559.72;5011627;28;19927;-85
2022/08/02 06:11:37;;;;;;;;;;;;;;;19.00;100.00;99557.47;5000804;28;19921;-84
2022/08/02 06:14:06;;;;;;;;;;;;;;;18.93;100.00;99544.78;5013622;28;20015;-84
2022/08/02 06:16:34;;;;;;;;;;;;;;;19.03;100.00;99538.63;5012953;28;20032;-85
2022/08/02 06:19:07;;;;;;;;;;;;;;;19.09;100.00;99530.97;5011148;28;19921;-84
2022/08/02 06:21:35;;;;;;;;;;;;;;;19.07;100.00;99524.97;5010870;28;19963;-84
2022/08/02 06:24:22;;;;;;;;;;;;;;;19.05;100.00;99521.63;5011164;28;19928;-84
2022/08/02 06:26:51;;;;;;;;;;;;;;;19.02;100.00;99526.38;5012190;28;19921;-84
2022/08/02 06:29:19;;;;;;;;;;;;;;;19.11;100.00;99534.31;5011237;28;20010;-85
2022/08/02 06:31:48;;;;;;;;;;;;;;;18.92;100.00;99536.97;5014711;28;19922;-85
2022/08/02 06:34:15;;;;;;;;;;;;;;;19.05;100.00;99536.69;5037947;28;20362;-85
2022/08/02 06:36:50;;;;;;;;;;;;;;;19.09;100.00;99541.56;5020957;28;19921;-84
2022/08/02 06:39:27;;;;;;;;;;;;;;;19.12;100.00;99535.13;5015389;28;20004;-84
2022/08/02 06:41:57;;;;;;;;;;;;;;;19.08;100.00;99547.00;5014588;28;19921;-84
2022/08/02 06:44:23;;;;;;;;;;;;;;;19.15;100.00;99522.41;5017389;28;20455;-84
2022/08/02 06:47:10;;;;;;;;;;;;;;;19.32;100.00;99514.72;5016343;28;19976;-84
2022/08/02 06:49:40;;;;;;;;;;;;;;;19.32;100.00;99523.50;5013537;28;19925;-84
2022/08/02 06:52:29;;;;;;;;;;;;;;;19.27;100.00;99531.06;5005805;28;20015;-85
2022/08/02 06:54:57;;;;;;;;;;;;;;;19.28;100.00;99532.75;5016177;28;20315;-84
2022/08/02 06:57:24;;;;;;;;;;;;;;;19.32;100.00;99520.84;5007031;28;19976;-84
2022/08/02 06:59:51;;;;;;;;;;;;;;;19.27;100.00;99535.53;5011773;28;20360;-84
2022/08/02 07:02:17;;;;;;;;;;;;;;;19.32;100.00;99533.28;5011553;28;19922;-84
2022/08/02 07:04:44;;;;;;;;;;;;;;;19.45;100.00;99527.66;5012103;28;19925;-84
2022/08/02 07:07:11;;;;;;;;;;;;;;;19.30;100.00;99536.09;5006786;28;19928;-85
2022/08/02 07:09:37;;;;;;;;;;;;;;;19.34;100.00;99541.94;5012187;28;19967;-85
2022/08/02 07:12:21;;;;;;;;;;;;;;;19.37;100.00;99543.47;5005822;28;20033;-85
2022/08/02 07:14:47;;;;;;;;;;;;;;;19.40;100.00;99553.81;5010682;28;19921;-85
2022/08/02 07:17:14;;;;;;;;;;;;;;;19.50;100.00;99552.78;5005325;28;19922;-85
2022/08/02 07:19:40;;;;;;;;;;;;;;;19.58;100.00;99562.69;5007773;28;19926;-85
2022/08/02 07:22:07;;;;;;;;;;;;;;;19.63;100.00;99575.53;5008994;28;19928;-85
2022/08/02 07:24:34;;;;;;;;;;;;;;;19.64;100.00;99564.78;5008355;28;19925;-85
2022/08/02 07:27:01;;;;;;;;;;;;;;;19.70;100.00;99566.00;5008307;28;19933;-84
2022/08/02 07:29:37;;;;;;;;;;;;;;;19.85;100.00;99563.78;5013813;28;20419;-84
2022/08/02 07:32:16;;;;;;;;;;;;;;;19.88;100.00;99545.72;5010592;28;19940;-85
2022/08/02 07:34:43;;;;;;;;;;;;;;;19.89;100.00;99544.72;5010710;28;19925;-86
2022/08/02 07:37:17;;;;;;;;;;;;;;;19.90;100.00;99532.25;5005737;28;20290;-84
2022/08/02 07:40:05;;;;;;;;;;;;;;;19.78;100.00;99539.59;5018291;28;19975;-84
2022/08/02 07:42:39;;;;;;;;;;;;;;;19.71;100.00;99547.28;5015434;28;20290;-84
2022/08/02 07:45:06;;;;;;;;;;;;;;;19.68;100.00;99546.72;5006787;28;19921;-84
2022/08/02 07:47:35;;;;;;;;;;;;;;;19.61;100.00;99541.16;5005489;28;19922;-84
2022/08/02 07:50:02;;;;;;;;;;;;;;;19.48;100.00;99551.28;4996081;28;19922;-84
2022/08/02 07:52:28;;;;;;;;;;;;;;;19.54;100.00;99550.69;5009369;28;19922;-85
2022/08/02 07:54:55;;;;;;;;;;;;;;;19.66;100.00;99552.19;5008811;28;20702;-84
2022/08/02 07:57:21;;;;;;;;;;;;;;;20.12;100.00;99556.78;5013001;28;21739;-85
2022/08/02 07:59:49;;;;;;;;;;;;;;;20.34;100.00;99560.84;5007090;28;19922;-85
2022/08/02 08:02:16;;;;;;;;;;;;;;;20.10;100.00;99548.97;5010774;28;19928;-85
2022/08/02 08:04:42;;;;;;;;;;;;;;;20.13;100.00;99553.13;5006630;28;19925;-85
2022/08/02 08:07:10;;;;;;;;;;;;;;;20.16;100.00;99552.84;5005320;28;20272;-85
2022/08/02 08:09:40;;;;;;;;;;;;;;;20.17;100.00;99549.19;5007099;28;20016;-85
2022/08/02 08:12:07;;;;;;;;;;;;;;;20.30;100.00;99552.34;5012382;28;19922;-85
2022/08/02 08:14:35;;;;;;;;;;;;;;;20.32;100.00;99549.53;5013073;28;19944;-84
2022/08/02 08:17:02;;;;;;;;;;;;;;;20.53;100.00;99546.59;5002680;28;19933;-85
2022/08/02 08:19:29;;;;;;;;;;;;;;;20.64;100.00;99541.91;5005153;28;20501;-85
2022/08/02 08:22:15;;;;;;;;;;;;;;;20.75;100.00;99530.22;5026513;28;20644;-84
2022/08/02 08:24:42;;;;;;;;;;;;;;;20.76;100.00;99533.72;5015500;28;20034;-84
2022/08/02 08:27:13;;;;;;;;;;;;;;;21.02;100.00;99525.78;5007915;28;19921;-85
2022/08/02 08:29:43;;;;;;;;;;;;;;;21.34;100.00;99519.03;5018696;28;19921;-85
2022/08/02 08:32:10;;;;;;;;;;;;;;;21.46;100.00;99509.81;5011557;28;19921;-85
2022/08/02 08:34:43;;;;;;;;;;;;;;;21.42;100.00;99513.72;5021459;28;20371;-85
2022/08/02 08:37:10;;;;;;;;;;;;;;;21.70;100.00;99505.59;5012564;28;19921;-84
2022/08/02 08:39:47;;;;;;;;;;;;;;;22.52;100.00;99506.72;5012882;28;19921;-85
2022/08/02 08:42:24;;;;;;;;;;;;;;;22.71;100.00;99507.38;5008693;28;19938;-85
2022/08/02 08:44:51;;;;;;;;;;;;;;;23.22;100.00;99518.72;5015388;28;19929;-85
2022/08/02 08:47:18;;;;;;;;;;;;;;;23.15;100.00;99515.06;5013695;28;19921;-85
2022/08/02 08:49:47;;;;;;;;;;;;;;;23.40;100.00;99523.03;5012646;28;19921;-84
2022/08/02 08:52:19;;;;;;;;;;;;;;;23.59;100.00;99517.31;5038105;28;19968;-85
2022/08/02 08:54:47;;;;;;;;;;;;;;;23.75;100.00;99515.59;5016651;28;19929;-85
2022/08/02 08:57:14;;;;;;;;;;;;;;;23.63;100.00;99540.00;5023764;28;19921;-85
2022/08/02 08:59:41;;;;;;;;;;;;;;;23.11;100.00;99516.41;5008674;28;20265;-85
2022/08/02 09:02:10;;;;;;;;;;;;;;;23.15;100.00;99506.22;5016370;28;19922;-85
2022/08/02 09:04:48;;;;;;;;;;;;;;;23.17;100.00;99509.56;5009314;28;19960;-85
2022/08/02 09:07:22;;;;;;;;;;;;;;;23.30;100.00;99501.84;5011229;28;19934;-84
2022/08/02 09:09:48;;;;;;;;;;;;;;;23.58;100.00;99510.28;5013676;28;19921;-83
2022/08/02 09:12:16;;;;;;;;;;;;;;;23.89;100.00;99520.25;5006361;28;20015;-83
2022/08/02 09:14:45;;;;;;;;;;;;;;;24.05;100.00;99504.13;5005862;28;19922;-84
2022/08/02 09:17:16;;;;;;;;;;;;;;;24.32;100.00;99509.97;5023956;28;20368;-85
2022/08/02 09:19:42;;;;;;;;;;;;;;;24.22;100.00;99507.56;5025068;28;19951;-86
2022/08/02 09:22:13;;;;;;;;;;;;;;;23.88;100.00;99500.69;5013386;28;19985;-85
2022/08/02 09:24:48;;;;;;;;;;;;;;;24.44;100.00;99503.22;5010035;28;19922;-86
2022/08/02 09:27:16;;;;;;;;;;;;;;;24.31;100.00;99512.81;5010595;28;19937;-86
2022/08/02 09:29:46;;;;;;;;;;;;;;;24.44;100.00;99499.72;5003557;28;19922;-85
2022/08/02 09:32:43;;;;;;;;;;;;;;;24.74;100.00;99502.53;5010343;28;19967;-85
2022/08/02 09:35:10;;;;;;;;;;;;;;;24.53;100.00;99493.31;5013349;28;19921;-86
2022/08/02 09:37:36;;;;;;;;;;;;;;;24.62;100.00;99505.63;5004266;28;19921;-85
2022/08/02 09:40:05;;;;;;;;;;;;;;;24.81;100.00;99504.31;5006838;28;19926;-85
2022/08/02 09:42:33;;;;;;;;;;;;;;;24.70;100.00;99512.78;5002980;28;19921;-85
2022/08/02 09:45:00;;;;;;;;;;;;;;;25.02;100.00;99502.81;5022534;28;19934;-85
2022/08/02 09:47:27;;;;;;;;;;;;;;;25.07;100.00;99503.06;5020306;28;19922;-85
2022/08/02 09:49:57;;;;;;;;;;;;;;;25.36;100.00;99499.63;5011471;28;19928;-84
2022/08/02 09:52:31;;;;;;;;;;;;;;;25.11;100.00;99503.56;5021232;28;19925;-85
2022/08/02 09:55:10;;;;;;;;;;;;;;;25.39;100.00;99501.09;5011792;28;19976;-85
2022/08/02 09:57:39;;;;;;;;;;;;;;;25.56;100.00;99513.31;5009249;28;19921;-85
2022/08/02 10:00:09;;;;;;;;;;;;;;;25.54;100.00;99506.50;5005731;28;19921;-84
2022/08/02 10:03:02;;;;;;;;;;;;;;;25.99;100.00;99501.09;5011246;28;20012;-85
2022/08/02 10:05:29;;;;;;;;;;;;;;;25.61;100.00;99518.13;5020040;28;19921;-85
2022/08/02 10:08:08;;;;;;;;;;;;;;;25.82;100.00;99516.56;5004908;28;19921;-85
2022/08/02 10:10:34;;;;;;;;;;;;;;;26.14;100.00;99513.47;5010965;28;19921;-85
2022/08/02 10:13:01;;;;;;;;;;;;;;;25.98;100.00;99510.19;5013885;28;19921;-89
2022/08/02 10:15:28;;;;;;;;;;;;;;;25.94;100.00;99518.59;5015842;28;19921;-91
2022/08/02 10:17:55;;;;;;;;;;;;;;;26.25;100.00;99508.63;5009008;28;19932;-85
2022/08/02 10:20:22;;;;;;;;;;;;;;;26.35;100.00;99506.47;5009053;28;20383;-85
2022/08/02 10:22:49;;;;;;;;;;;;;;;26.41;100.00;99503.03;5022968;28;19921;-85
2022/08/02 10:25:17;;;;;;;;;;;;;;;26.38;100.00;99507.94;5013840;28;19928;-85
2022/08/02 10:27:43;;;;;;;;;;;;;;;26.34;100.00;99508.31;5027304;28;19921;-85
2022/08/02 10:30:30;;;;;;;;;;;;;;;25.49;100.00;99541.03;5019307;28;19921;-84
2022/08/02 10:32:58;;;;;;;;;;;;;;;25.57;100.00;99535.59;5017936;28;19921;-87
2022/08/02 10:35:25;;;;;;;;;;;;;;;25.76;100.00;99520.78;5015340;28;20284;-88
2022/08/02 10:37:59;;;;;;;;;;;;;;;26.15;100.00;99519.66;5014172;28;19953;-88
2022/08/02 10:40:41;;;;;;;;;;;;;;;26.05;100.00;99527.19;5010687;28;20299;-88
2022/08/02 10:43:10;;;;;;;;;;;;;;;26.22;100.00;99523.25;5003451;28;20414;-87
2022/08/02 10:45:37;;;;;;;;;;;;;;;26.50;100.00;99519.84;5015662;28;19921;-88
2022/08/02 10:48:06;;;;;;;;;;;;;;;26.25;100.00;99517.50;5014388;28;19928;-87
2022/08/02 10:50:45;;;;;;;;;;;;;;;26.58;100.00;99524.22;5012191;28;19944;-88
2022/08/02 10:53:19;;;;;;;;;;;;;;;26.78;100.00;99530.66;5011427;28;19921;-87
2022/08/02 10:55:45;;;;;;;;;;;;;;;26.65;100.00;99538.63;5004750;28;19929;-87
2022/08/02 10:58:16;;;;;;;;;;;;;;;26.60;100.00;99546.38;5020248;28;19967;-88
2022/08/02 11:00:42;;;;;;;;;;;;;;;26.69;100.00;99540.69;5014020;28;19922;-88
2022/08/02 11:03:27;;;;;;;;;;;;;;;26.61;100.00;99537.28;5027136;28;19988;-88
2022/08/02 11:06:02;;;;;;;;;;;;;;;26.69;100.00;99540.69;5029194;28;19921;-87
2022/08/02 11:08:28;;;;;;;;;;;;;;;26.53;100.00;99540.94;5012373;28;20488;-87
2022/08/02 11:10:59;;;;;;;;;;;;;;;26.01;100.00;99541.97;5010311;28;19925;-88
2022/08/02 11:13:27;;;;;;;;;;;;;;;26.31;100.00;99540.91;5003294;28;19921;-88
2022/08/02 11:16:01;;;;;;;;;;;;;;;26.41;100.00;99537.91;5011693;28;19921;-87
2022/08/02 11:18:49;;;;;;;;;;;;;;;26.57;100.00;99544.88;5014432;28;19921;-88
2022/08/02 11:21:25;;;;;;;;;;;;;;;26.57;100.00;99544.88;5015102;28;19932;-87
2022/08/02 11:23:52;;;;;;;;;;;;;;;27.37;100.00;99532.19;5017970;28;19944;-87
2022/08/02 11:26:30;;;;;;;;;;;;;;;27.30;100.00;99530.50;5017671;28;19943;-87
2022/08/02 11:28:59;;;;;;;;;;;;;;;27.24;100.00;99530.22;5015810;28;20275;-88
2022/08/02 11:31:26;;;;;;;;;;;;;;;26.85;100.00;99528.88;5017962;28;19925;-88
2022/08/02 11:33:52;;;;;;;;;;;;;;;26.49;100.00;99529.75;5034265;28;20295;-88
2022/08/02 11:36:19;;;;;;;;;;;;;;;26.23;100.00;99529.47;5018180;28;19929;-89
2022/08/02 11:38:48;;;;;;;;;;;;;;;26.55;100.00;99528.16;5023895;28;19929;-88
2022/08/02 11:41:21;;;;;;;;;;;;;;;26.13;100.00;99527.91;5005911;28;20376;-88
2022/08/02 11:44:08;;;;;;;;;;;;;;;25.90;100.00;99527.97;5014666;28;19925;-88
2022/08/02 11:46:35;;;;;;;;;;;;;;;26.20;100.00;99527.16;5014484;28;19921;-87
2022/08/02 11:49:12;;;;;;;;;;;;;;;26.52;100.00;99515.09;5010259;28;19921;-86
2022/08/02 11:51:49;;;;;;;;;;;;;;;26.49;100.00;99526.25;5009480;28;19948;-88
2022/08/02 11:54:30;;;;;;;;;;;;;;;27.08;100.00;99525.97;5029451;28;19925;-89
2022/08/02 11:57:12;;;;;;;;;;;;;;;27.24;100.00;99519.47;5019791;28;20252;-90
2022/08/02 11:59:46;;;;;;;;;;;;;;;27.38;100.00;99516.91;5020817;28;19935;-88
2022/08/02 12:02:12;;;;;;;;;;;;;;;27.22;100.00;99521.53;5010053;28;19922;-88
2022/08/02 12:04:40;;;;;;;;;;;;;;;27.16;100.00;99521.47;5014434;28;19921;-89
2022/08/02 12:07:09;;;;;;;;;;;;;;;27.04;100.00;99513.97;5007658;28;19921;-88
2022/08/02 12:09:36;;;;;;;;;;;;;;;26.97;100.00;99521.13;5002618;28;19922;-88
2022/08/02 12:12:06;;;;;;;;;;;;;;;26.55;100.00;99521.97;5013054;28;20009;-90
2022/08/02 12:14:40;;;;;;;;;;;;;;;26.99;100.00;99521.75;5027341;28;20024;-87
2022/08/02 12:19:51;;;;;;;;;;;;;;;27.00;100.00;99517.22;5006236;28;19922;-87
2022/08/02 12:22:22;;;;;;;;;;;;;;;27.15;100.00;99512.59;5001979;28;20257;-87
2022/08/02 12:24:54;;;;;;;;;;;;;;;26.57;100.00;99525.28;5015179;28;19921;-88
2022/08/02 12:27:47;;;;;;;;;;;;;;;26.39;100.00;99523.03;5011405;28;19922;-88
2022/08/02 12:30:18;;;;;;;;;;;;;;;26.80;100.00;99519.75;5012255;28;19921;-87
2022/08/02 12:33:06;;;;;;;;;;;;;;;26.92;100.00;99523.56;5005444;28;20413;-88
2022/08/02 12:35:38;;;;;;;;;;;;;;;27.48;100.00;99519.22;5008066;28;20040;-89
2022/08/02 12:38:11;;;;;;;;;;;;;;;27.10;100.00;99520.41;4993284;28;19972;-88
2022/08/02 12:40:37;;;;;;;;;;;;;;;27.53;100.00;99519.47;4993539;28;19929;-88
2022/08/02 12:43:05;;;;;;;;;;;;;;;27.27;100.00;99511.06;4989395;28;19926;-87
2022/08/02 12:45:45;;;;;;;;;;;;;;;26.73;100.00;99508.94;5013285;28;19922;-87
2022/08/02 12:48:14;;;;;;;;;;;;;;;26.24;100.00;99509.63;4990756;28;19944;-88
2022/08/02 12:50:43;;;;;;;;;;;;;;;26.52;100.00;99521.31;4992720;28;19929;-89
2022/08/02 12:53:11;;;;;;;;;;;;;;;26.64;100.00;99497.50;5005123;28;19934;-89